全部
Flugplatz Wershofen/Eifel Airport EDRV 天气
There is no TAF data available at EDRV or any nearby airports.
There is no METAR data available at EDRV. Showing METAR data for ETSB (23 mi SE).
ETSB近期METAR历史数据(EDRV无数据)
| Date | Time (CEST) | Flight Rules | Wind Dir. | Speed | Type | Height AGL (ft) | Visibility | Temp (°C) | Temp (°F) | Dew Point (°C) | Dew Point (°F) | Rel. Humid. | Pressure | Density Altitude | Remarks |
|---|---|---|---|---|---|---|---|---|---|---|---|---|---|---|---|
| gap in available data | |||||||||||||||
| 03-五月 | 19:20 | n/a | 230° | 9 kt | Missing | 13° | 55° | 9° | 48° | 77% | 1012 mb | 1,601 ft | |||
| 03-五月 | 18:20 | n/a | 240° | 11 kt | Missing | 13° | 55° | 8° | 46° | 72% | 1013 mb | 1,572 ft | |||
| 03-五月 | 17:20 | n/a | 250° | 11 kt | Missing | 13° | 55° | 9° | 48° | 77% | 1013 mb | 1,572 ft | |||
| 03-五月 | 16:20 | n/a | 240° | 13 kt | Missing | 17° | 62° | 6° | 42° | 48% | 1013 mb | 2,052 ft | |||
| 03-五月 | 15:20 | n/a | 220° | 12 kt | Missing | 18° | 64° | 6° | 42° | 45% | 1013 mb | 2,172 ft | |||
| 03-五月 | 14:20 | n/a | 240° | 10 kt | Missing | 17° | 62° | 6° | 42° | 48% | 1013 mb | 2,052 ft | |||
| 03-五月 | 13:20 | n/a | 220° | 14 kt | Missing | 17° | 62° | 6° | 42° | 48% | 1013 mb | 2,052 ft | |||
| 03-五月 | 12:20 | n/a | 210° | 18 kt | Missing | 17° | 62° | 4° | 39° | 42% | 1013 mb | 2,052 ft | |||
| 03-五月 | 11:20 | n/a | 190° | 15 kt | Missing | 17° | 62° | 4° | 39° | 42% | 1013 mb | 2,052 ft | |||
| 03-五月 | 10:20 | n/a | 210° | 15 kt | Missing | 16° | 60° | 3° | 37° | 42% | 1013 mb | 1,932 ft | |||
| 03-五月 | 09:20 | n/a | 210° | 9 kt | Missing | 15° | 59° | 4° | 39° | 48% | 1014 mb | 1,782 ft | |||
| 03-五月 | 08:20 | n/a | 220° | 9 kt | Missing | 14° | 57° | 3° | 37° | 47% | 1014 mb | 1,662 ft | |||
| 03-五月 | 07:20 | n/a | 240° | 9 kt | Missing | 14° | 57° | 2° | 35° | 44% | 1013 mb | 1,692 ft | |||
| 03-五月 | 06:20 | n/a | 230° | 7 kt | Missing | 14° | 57° | 2° | 35° | 44% | 1014 mb | 1,662 ft | |||
| 03-五月 | 05:20 | n/a | 220° | 8 kt | Missing | 13° | 55° | 3° | 37° | 51% | 1014 mb | 1,542 ft | |||
| 03-五月 | 04:20 | n/a | 230° | 9 kt | Missing | 14° | 57° | 3° | 37° | 47% | 1014 mb | 1,662 ft | |||
| 03-五月 | 03:20 | n/a | 230° | 7 kt | Missing | 15° | 59° | 2° | 35° | 41% | 1014 mb | 1,782 ft | |||
| 03-五月 | 02:20 | n/a | 250° | 3 kt | Missing | 15° | 59° | 3° | 37° | 44% | 1015 mb | 1,753 ft | |||
| 03-五月 | 01:20 | n/a | 230° | 7 kt | Missing | 16° | 60° | 2° | 35° | 39% | 1015 mb | 1,873 ft | |||
| 03-五月 | 00:20 | n/a | 210° | 7 kt | Missing | 15° | 59° | 3° | 37° | 44% | 1015 mb | 1,753 ft | |||
| 02-五月 | 23:20 | n/a | 220° | 6 kt | Missing | 17° | 62° | 3° | 37° | 39% | 1015 mb | 1,993 ft | |||
| 02-五月 | 22:20 | n/a | 210° | 6 kt | Missing | 18° | 64° | 3° | 37° | 37% | 1016 mb | 2,083 ft | |||
| 02-五月 | 21:20 | n/a | 200° | 5 kt | Missing | 19° | 66° | 3° | 37° | 34% | 1016 mb | 2,203 ft | |||
| 02-五月 | 20:20 | n/a | 210° | 7 kt | Missing | 20° | 68° | 4° | 39° | 35% | 1016 mb | 2,323 ft | |||
登录
| 您的浏览器不支持. 升级您的浏览器 |
